Terminal Aerodrome Forecast
Issued by NWS

Home | Current Version | Previous Version | Text Only | Print | Product List | Glossary On
Versions: 1 2 3 4 5 6 7 8 9 10 11 12 13 14 15 16 17 18 19 20 21 22 23 24 25
000
FTUS44 KFWD 052326
TAFDAL
TAF
KDAL 052326Z 0600/0624 17015KT P6SM FEW060 SCT300
     FM061000 18015KT P6SM BKN015
     FM061500 18018KT P6SM BKN025
     FM061700 18018G28KT P6SM SCT040=

USA.gov is the U.S. government's official web portal to all federal, state and local government web resources and services.